Terminal Aerodrome Forecast
Issued by NWS Green Bay, WI

Home | Current Version | Previous Version | Text Only | Print | Product List | Glossary Off
Versions: 1 2 3 4 5 6 7 8 9 10 11 12 13 14 15 16 17 18 19 20 21 22 23 24

000
FTUS43 KGRB 210520
TAFGRB
TAF
KGRB 210520Z 2106/2206 00000KT 3SM BR BKN110
      TEMPO 2106/2109 1 1/2SM BR SCT009 BKN100
     FM210900 00000KT 2SM BR SCT009 OVC110
      TEMPO 2109/2113 1/2SM FG BKN005
     FM211600 VRB03KT 3SM BR OVC060
     FM212300 05006KT P6SM OVC015
     FM220300 04007KT 6SM -SN BR OVC012=

USA.gov is the U.S. government's official web portal to all federal, state and local government web resources and services.